King Hill, Idaho
Current Conditions -  °F | °C
As of 12:58 PM on Sunday 23 Nov 2014 (Local Time) from KMUO Reporting Station
Clear Clear  
Wind Chill: 38°   Ceiling: Unl
Heat Index: 44°   Visibility: 10mi
Dew Point: 30°   Wind: 9mph
Humidity: 59%   Direction: 310°NW
Pressure: 30.29"   Gusts: NA
Location:  43°N, 115.21°W
Report Text: KMUO 231958Z AUTO 31008KT 10SM CLR 06/M01 A3029 RMK AO2 SLP272 T00641010
Loading
Personal Weather Stations






























Interactive Weather Map New forecast layout! Learn more

10-Day Weather Forecast

Advertisements
Track Severe Weather on mobile